Time;durP1;ratioP1;P1;durP2;ratioP2;P2;SDS_P1;SDS_P2;PMS_P1;PMS_P2;Temp;Humidity;BMP_temperature;BMP_pressure;BME280_temperature;BME280_humidity;BME280_pressure;Samples;Min_cycle;Max_cycle;Signal;HPM_P1;HPM_P2
2020/08/01 00:37:06;;;;;;;12.3;11.1;;;;;;;19.15;81.71582;95185.25;;;;
2020/08/01 00:38:11;;;;;;;12.3;11.1;;;;;;;19.15;81.71582;95185.25;;;;
2020/08/01 00:39:19;;;;;;;12.3;11.1;;;;;;;19.15;81.71582;95185.25;;;;
2020/08/01 00:40:24;;;;;;;12.3;11.1;;;;;;;19.15;81.71582;95185.25;;;;
2020/08/01 00:41:30;;;;;;;12.3;11.1;;;;;;;19.15;81.71582;95185.25;;;;
2020/08/01 00:42:42;;;;;;;12.3;11.1;;;;;;;19.15;81.71582;95185.25;;;;
2020/08/01 00:43:46;;;;;;;12.3;11.1;;;;;;;19.15;81.71582;95185.25;;;;
2020/08/01 00:44:52;;;;;;;12.3;11.1;;;;;;;19.15;81.71582;95185.25;;;;
2020/08/01 00:45:57;;;;;;;12.3;11.1;;;;;;;19.15;81.71582;95185.25;;;;
2020/08/01 00:47:03;;;;;;;12.3;11.1;;;;;;;19.15;81.71582;95185.25;;;;
2020/08/01 00:48:11;;;;;;;12.3;11.1;;;;;;;19.15;81.71582;95185.25;;;;
2020/08/01 00:49:16;;;;;;;12.3;11.1;;;;;;;19.15;81.71582;95185.25;;;;
2020/08/01 00:50:29;;;;;;;12.3;11.1;;;;;;;19.15;81.71582;95185.25;;;;
2020/08/01 00:51:35;;;;;;;12.3;11.1;;;;;;;19.15;81.71582;95185.25;;;;
2020/08/01 00:52:49;;;;;;;12.3;11.1;;;;;;;19.15;81.71582;95185.25;;;;
2020/08/01 00:53:57;;;;;;;12.3;11.1;;;;;;;19.15;81.71582;95185.25;;;;
2020/08/01 00:54:57;;;;;;;12.3;11.1;;;;;;;19.15;81.71582;95185.25;;;;
2020/08/01 00:56:04;;;;;;;12.3;11.1;;;;;;;19.15;81.71582;95185.25;;;;
2020/08/01 00:57:15;;;;;;;12.3;11.1;;;;;;;19.15;81.71582;95185.25;;;;
2020/08/01 00:58:57;;;;;;;12.3;11.1;;;;;;;19.15;81.71582;95185.25;;;;
2020/08/01 00:59:57;;;;;;;12.3;11.1;;;;;;;19.15;81.71582;95185.25;;;;
2020/08/01 01:01:08;;;;;;;12.3;11.1;;;;;;;19.15;81.71582;95185.25;;;;
2020/08/01 01:02:14;;;;;;;12.3;11.1;;;;;;;19.15;81.71582;95185.25;;;;
2020/08/01 01:03:18;;;;;;;12.3;11.1;;;;;;;19.15;81.71582;95185.25;;;;
2020/08/01 01:04:25;;;;;;;12.3;11.1;;;;;;;19.15;81.71582;95185.25;;;;
2020/08/01 01:05:37;;;;;;;12.3;11.1;;;;;;;19.15;81.71582;95185.25;;;;
2020/08/01 01:06:39;;;;;;;12.3;11.1;;;;;;;19.15;81.71582;95185.25;;;;
2020/08/01 01:07:45;;;;;;;12.3;11.1;;;;;;;19.15;81.71582;95185.25;;;;
2020/08/01 01:08:51;;;;;;;12.3;11.1;;;;;;;19.15;81.71582;95185.25;;;;
2020/08/01 01:09:56;;;;;;;12.3;11.1;;;;;;;19.15;81.71582;95185.25;;;;
2020/08/01 01:11:03;;;;;;;12.3;11.1;;;;;;;19.15;81.71582;95185.25;;;;
2020/08/01 01:12:12;;;;;;;12.3;11.1;;;;;;;19.15;81.71582;95185.25;;;;
2020/08/01 01:13:20;;;;;;;12.3;11.1;;;;;;;19.15;81.71582;95185.25;;;;
2020/08/01 01:14:29;;;;;;;12.3;11.1;;;;;;;19.15;81.71582;95185.25;;;;
2020/08/01 01:15:34;;;;;;;12.3;11.1;;;;;;;19.15;81.71582;95185.25;;;;
2020/08/01 01:16:38;;;;;;;12.3;11.1;;;;;;;19.15;81.71582;95185.25;;;;
2020/08/01 01:17:43;;;;;;;12.3;11.1;;;;;;;19.15;81.71582;95185.25;;;;
2020/08/01 01:18:49;;;;;;;12.3;11.1;;;;;;;19.15;81.71582;95185.25;;;;
2020/08/01 01:19:57;;;;;;;12.3;11.1;;;;;;;19.15;81.71582;95185.25;;;;
2020/08/01 01:21:06;;;;;;;12.3;11.1;;;;;;;19.15;81.71582;95185.25;;;;
2020/08/01 04:14:30;;;;;;;13.45;12.2;;;;;;;18.93;91.74707;95111.6;;;;
2020/08/01 04:15:39;;;;;;;13.45;12.2;;;;;;;18.93;91.74707;95111.6;;;;
2020/08/01 04:16:49;;;;;;;13.45;12.2;;;;;;;18.93;91.74707;95111.6;;;;
2020/08/01 04:18:03;;;;;;;13.45;12.2;;;;;;;18.93;91.74707;95111.6;;;;
2020/08/01 04:19:12;;;;;;;13.45;12.2;;;;;;;18.93;91.74707;95111.6;;;;
2020/08/01 04:20:21;;;;;;;13.45;12.2;;;;;;;18.93;91.74707;95111.6;;;;
2020/08/01 04:21:27;;;;;;;13.45;12.2;;;;;;;18.93;91.74707;95111.6;;;;
2020/08/01 04:22:43;;;;;;;13.45;12.2;;;;;;;18.93;91.74707;95111.6;;;;
2020/08/01 04:23:50;;;;;;;13.45;12.2;;;;;;;18.93;91.74707;95111.6;;;;
2020/08/01 04:25:04;;;;;;;13.45;12.2;;;;;;;18.93;91.74707;95111.6;;;;
2020/08/01 04:26:16;;;;;;;13.45;12.2;;;;;;;18.93;91.74707;95111.6;;;;
2020/08/01 04:27:26;;;;;;;13.45;12.2;;;;;;;18.93;91.74707;95111.6;;;;
2020/08/01 04:28:37;;;;;;;13.45;12.2;;;;;;;18.93;91.74707;95111.6;;;;
2020/08/01 04:29:50;;;;;;;13.45;12.2;;;;;;;18.93;91.74707;95111.6;;;;
2020/08/01 04:31:03;;;;;;;13.45;12.2;;;;;;;18.93;91.74707;95111.6;;;;
2020/08/01 04:32:18;;;;;;;13.45;12.2;;;;;;;18.93;91.74707;95111.6;;;;
2020/08/01 04:33:33;;;;;;;13.45;12.2;;;;;;;18.93;91.74707;95111.6;;;;
2020/08/01 04:34:42;;;;;;;13.45;12.2;;;;;;;18.93;91.74707;95111.6;;;;
2020/08/01 04:35:56;;;;;;;13.45;12.2;;;;;;;18.93;91.74707;95111.6;;;;
2020/08/01 04:37:11;;;;;;;13.45;12.2;;;;;;;18.93;91.74707;95111.6;;;;
2020/08/01 04:38:22;;;;;;;13.45;12.2;;;;;;;18.93;91.74707;95111.6;;;;
2020/08/01 04:39:34;;;;;;;13.45;12.2;;;;;;;18.93;91.74707;95111.6;;;;
2020/08/01 04:40:47;;;;;;;13.45;12.2;;;;;;;18.93;91.74707;95111.6;;;;
2020/08/01 04:42:03;;;;;;;13.45;12.2;;;;;;;18.93;91.74707;95111.6;;;;
2020/08/01 04:43:17;;;;;;;13.45;12.2;;;;;;;18.93;91.74707;95111.6;;;;
2020/08/01 04:44:28;;;;;;;13.45;12.2;;;;;;;18.93;91.74707;95111.6;;;;
2020/08/01 04:45:36;;;;;;;13.45;12.2;;;;;;;18.93;91.74707;95111.6;;;;
2020/08/01 04:46:47;;;;;;;12.5;11.4;;;;;;;19.63;91.38184;95129.86;;;;
2020/08/01 04:47:54;;;;;;;12.5;11.4;;;;;;;19.63;91.38184;95129.86;;;;
2020/08/01 04:49:12;;;;;;;12.5;11.4;;;;;;;19.63;91.38184;95129.86;;;;
2020/08/01 04:50:32;;;;;;;12.5;11.4;;;;;;;19.63;91.38184;95129.86;;;;
2020/08/01 04:51:38;;;;;;;12.5;11.4;;;;;;;19.63;91.38184;95129.86;;;;
2020/08/01 04:52:55;;;;;;;12.5;11.4;;;;;;;19.63;91.38184;95129.86;;;;
2020/08/01 04:54:00;;;;;;;12.5;11.4;;;;;;;19.63;91.38184;95129.86;;;;
2020/08/01 04:55:03;;;;;;;12.5;11.4;;;;;;;19.63;91.38184;95129.86;;;;
2020/08/01 04:56:16;;;;;;;12.5;11.4;;;;;;;19.63;91.38184;95129.86;;;;
2020/08/01 04:57:22;;;;;;;12.45;11.35;;;;;;;19.87;91.16699;95134.86;;;;
2020/08/01 04:58:35;;;;;;;12.45;11.35;;;;;;;19.87;91.16699;95134.86;;;;
2020/08/01 04:59:43;;;;;;;12.45;11.35;;;;;;;19.87;91.16699;95134.86;;;;
2020/08/01 05:00:54;;;;;;;12.45;11.35;;;;;;;19.87;91.16699;95134.86;;;;
2020/08/01 05:02:00;;;;;;;12.45;11.35;;;;;;;19.87;91.16699;95134.86;;;;
2020/08/01 05:03:09;;;;;;;12.45;11.35;;;;;;;19.87;91.16699;95134.86;;;;
2020/08/01 05:04:30;;;;;;;12.45;11.35;;;;;;;19.87;91.16699;95134.86;;;;
2020/08/01 05:05:37;;;;;;;12.45;11.35;;;;;;;19.87;91.16699;95134.86;;;;
2020/08/01 05:06:46;;;;;;;12.45;11.35;;;;;;;19.87;91.16699;95134.86;;;;
2020/08/01 05:08:13;;;;;;;13.2;11.85;;;;;;;20.2;90.74609;95135.19;;;;
2020/08/01 05:09:34;;;;;;;13.2;11.85;;;;;;;20.2;90.74609;95135.19;;;;
2020/08/01 05:10:38;;;;;;;13.2;11.85;;;;;;;20.2;90.74609;95135.19;;;;
2020/08/01 05:11:46;;;;;;;13.2;11.85;;;;;;;20.2;90.74609;95135.19;;;;
2020/08/01 05:13:13;;;;;;;13.2;11.85;;;;;;;20.2;90.74609;95135.19;;;;
2020/08/01 05:14:37;;;;;;;13.2;11.85;;;;;;;20.2;90.74609;95135.19;;;;
2020/08/01 05:16:26;;;;;;;13.2;11.85;;;;;;;20.2;90.74609;95135.19;;;;
2020/08/01 05:17:39;;;;;;;13.2;11.85;;;;;;;20.2;90.74609;95135.19;;;;
2020/08/01 05:18:49;;;;;;;13.1;11.8;;;;;;;20.41;90.36328;95141.41;;;;
2020/08/01 05:19:57;;;;;;;13.1;11.8;;;;;;;20.41;90.36328;95141.41;;;;
2020/08/01 05:21:18;;;;;;;13.1;11.8;;;;;;;20.41;90.36328;95141.41;;;;
2020/08/01 05:26:36;;;;;;;13.1;11.8;;;;;;;20.41;90.36328;95141.41;;;;
2020/08/01 05:28:02;;;;;;;13.1;11.8;;;;;;;20.41;90.36328;95141.41;;;;
2020/08/01 05:29:31;;;;;;;13.05;11.85;;;;;;;20.74;90.2666;95136.7;;;;
2020/08/01 05:30:41;;;;;;;13.05;11.85;;;;;;;20.74;90.2666;95136.7;;;;
2020/08/01 05:32:21;;;;;;;13.05;11.85;;;;;;;20.74;90.2666;95136.7;;;;
2020/08/01 05:33:47;;;;;;;13.05;11.85;;;;;;;20.74;90.2666;95136.7;;;;
2020/08/01 05:35:34;;;;;;;13.05;11.85;;;;;;;20.74;90.2666;95136.7;;;;
2020/08/01 05:36:44;;;;;;;13.05;11.85;;;;;;;20.74;90.2666;95136.7;;;;
2020/08/01 05:37:52;;;;;;;13.05;11.85;;;;;;;20.74;90.2666;95136.7;;;;
2020/08/01 05:39:13;;;;;;;13.05;11.85;;;;;;;20.74;90.2666;95136.7;;;;
2020/08/01 05:48:05;;;;;;;12.5;11.3;;;;;;;21.13;89.73535;95132.53;;;;
2020/08/01 05:49:15;;;;;;;12.5;11.3;;;;;;;21.13;89.73535;95132.53;;;;
2020/08/01 05:50:21;;;;;;;12.4;11.3;;;;;;;21.62;88.85938;95128.86;;;;
2020/08/01 05:51:28;;;;;;;12.4;11.3;;;;;;;21.62;88.85938;95128.86;;;;
2020/08/01 05:52:35;;;;;;;12.4;11.3;;;;;;;21.62;88.85938;95128.86;;;;
2020/08/01 05:53:42;;;;;;;12.4;11.3;;;;;;;21.62;88.85938;95128.86;;;;
2020/08/01 05:54:49;;;;;;;12.4;11.3;;;;;;;21.62;88.85938;95128.86;;;;
2020/08/01 05:55:56;;;;;;;12.4;11.3;;;;;;;21.62;88.85938;95128.86;;;;
2020/08/01 05:57:03;;;;;;;12.4;11.3;;;;;;;21.62;88.85938;95128.86;;;;
2020/08/01 05:58:16;;;;;;;12.4;11.3;;;;;;;21.62;88.85938;95128.86;;;;
2020/08/01 05:59:23;;;;;;;12.4;11.3;;;;;;;21.62;88.85938;95128.86;;;;
2020/08/01 06:00:33;;;;;;;12.4;11.3;;;;;;;21.62;88.85938;95128.86;;;;
2020/08/01 06:01:43;;;;;;;11.15;10.05;;;;;;;22.07;87.88965;95134.3;;;;
2020/08/01 06:02:49;;;;;;;11.15;10.05;;;;;;;22.07;87.88965;95134.3;;;;
2020/08/01 06:03:56;;;;;;;11.15;10.05;;;;;;;22.07;87.88965;95134.3;;;;
2020/08/01 06:05:03;;;;;;;11.15;10.05;;;;;;;22.07;87.88965;95134.3;;;;
2020/08/01 06:06:10;;;;;;;11.15;10.05;;;;;;;22.07;87.88965;95134.3;;;;
2020/08/01 06:07:19;;;;;;;11.15;10.05;;;;;;;22.07;87.88965;95134.3;;;;
2020/08/01 06:08:24;;;;;;;11.15;10.05;;;;;;;22.07;87.88965;95134.3;;;;
2020/08/01 06:09:30;;;;;;;11.15;10.05;;;;;;;22.07;87.88965;95134.3;;;;
2020/08/01 06:10:38;;;;;;;11.15;10.05;;;;;;;22.07;87.88965;95134.3;;;;
2020/08/01 06:11:45;;;;;;;11.3;10.3;;;;;;;22.63;86.24512;95142.02;;;;
2020/08/01 06:12:51;;;;;;;11.3;10.3;;;;;;;22.63;86.24512;95142.02;;;;
2020/08/01 06:14:02;;;;;;;11.3;10.3;;;;;;;22.63;86.24512;95142.02;;;;
2020/08/01 06:15:11;;;;;;;11.3;10.3;;;;;;;22.63;86.24512;95142.02;;;;
2020/08/01 06:16:17;;;;;;;11.3;10.3;;;;;;;22.63;86.24512;95142.02;;;;
2020/08/01 06:17:26;;;;;;;11.3;10.3;;;;;;;22.63;86.24512;95142.02;;;;
2020/08/01 06:18:32;;;;;;;11.3;10.3;;;;;;;22.63;86.24512;95142.02;;;;
2020/08/01 06:19:38;;;;;;;11.3;10.3;;;;;;;22.63;86.24512;95142.02;;;;
2020/08/01 06:20:45;;;;;;;11.3;10.3;;;;;;;22.63;86.24512;95142.02;;;;
2020/08/01 06:21:51;;;;;;;11.3;10.3;;;;;;;22.63;86.24512;95142.02;;;;
2020/08/01 06:22:59;;;;;;;11.1;10;;;;;;;23.21;84.78613;95140.45;;;;
2020/08/01 06:24:04;;;;;;;11.1;10;;;;;;;23.21;84.78613;95140.45;;;;
2020/08/01 06:25:13;;;;;;;11.1;10;;;;;;;23.21;84.78613;95140.45;;;;
2020/08/01 06:26:23;;;;;;;11.1;10;;;;;;;23.21;84.78613;95140.45;;;;
2020/08/01 06:27:29;;;;;;;11.1;10;;;;;;;23.21;84.78613;95140.45;;;;
2020/08/01 06:28:34;;;;;;;11.1;10;;;;;;;23.21;84.78613;95140.45;;;;
2020/08/01 06:29:40;;;;;;;11.1;10;;;;;;;23.21;84.78613;95140.45;;;;
2020/08/01 06:30:46;;;;;;;11.1;10;;;;;;;23.21;84.78613;95140.45;;;;
2020/08/01 06:31:58;;;;;;;11.1;10;;;;;;;23.21;84.78613;95140.45;;;;
2020/08/01 06:33:08;;;;;;;11.25;10.1;;;;;;;23.86;83.21484;95145.03;;;;
2020/08/01 06:34:19;;;;;;;11.25;10.1;;;;;;;23.86;83.21484;95145.03;;;;
2020/08/01 06:35:25;;;;;;;11.25;10.1;;;;;;;23.86;83.21484;95145.03;;;;
2020/08/01 06:36:34;;;;;;;11.25;10.1;;;;;;;23.86;83.21484;95145.03;;;;
2020/08/01 06:37:40;;;;;;;11.25;10.1;;;;;;;23.86;83.21484;95145.03;;;;
2020/08/01 06:38:46;;;;;;;11.25;10.1;;;;;;;23.86;83.21484;95145.03;;;;
2020/08/01 06:39:50;;;;;;;11.25;10.1;;;;;;;23.86;83.21484;95145.03;;;;
2020/08/01 06:40:56;;;;;;;11.25;10.1;;;;;;;23.86;83.21484;95145.03;;;;
2020/08/01 06:42:03;;;;;;;11.25;10.1;;;;;;;23.86;83.21484;95145.03;;;;
2020/08/01 06:43:13;;;;;;;10.95;9.9;;;;;;;24.96;80.71582;95153.63;;;;
2020/08/01 06:44:27;;;;;;;10.95;9.9;;;;;;;24.96;80.71582;95153.63;;;;
2020/08/01 06:45:31;;;;;;;10.95;9.9;;;;;;;24.96;80.71582;95153.63;;;;
2020/08/01 06:46:37;;;;;;;10.95;9.9;;;;;;;24.96;80.71582;95153.63;;;;
2020/08/01 06:47:48;;;;;;;10.95;9.9;;;;;;;24.96;80.71582;95153.63;;;;
2020/08/01 06:48:53;;;;;;;10.95;9.9;;;;;;;24.96;80.71582;95153.63;;;;
2020/08/01 06:50:00;;;;;;;10.95;9.9;;;;;;;24.96;80.71582;95153.63;;;;
2020/08/01 06:51:05;;;;;;;10.95;9.9;;;;;;;24.96;80.71582;95153.63;;;;
2020/08/01 06:52:14;;;;;;;10.95;9.9;;;;;;;24.96;80.71582;95153.63;;;;
2020/08/01 06:53:22;;;;;;;10.95;9.9;;;;;;;24.96;80.71582;95153.63;;;;
2020/08/01 06:54:28;;;;;;;10.4;9.499999;;;;;;;26.72;76.43945;95153.27;;;;
2020/08/01 06:55:34;;;;;;;10.4;9.499999;;;;;;;26.72;76.43945;95153.27;;;;
2020/08/01 06:56:39;;;;;;;10.4;9.499999;;;;;;;26.72;76.43945;95153.27;;;;
2020/08/01 06:57:46;;;;;;;10.4;9.499999;;;;;;;26.72;76.43945;95153.27;;;;
2020/08/01 06:58:52;;;;;;;10.4;9.499999;;;;;;;26.72;76.43945;95153.27;;;;
2020/08/01 06:59:57;;;;;;;10.4;9.499999;;;;;;;26.72;76.43945;95153.27;;;;
2020/08/01 07:01:04;;;;;;;10.4;9.499999;;;;;;;26.72;76.43945;95153.27;;;;
2020/08/01 07:02:12;;;;;;;10.4;9.499999;;;;;;;26.72;76.43945;95153.27;;;;
2020/08/01 07:03:23;;;;;;;10.4;9.499999;;;;;;;26.72;76.43945;95153.27;;;;
2020/08/01 07:04:33;;;;;;;10.15;9.25;;;;;;;28.25;72.62207;95144.2;;;;
2020/08/01 07:05:44;;;;;;;10.15;9.25;;;;;;;28.25;72.62207;95144.2;;;;
2020/08/01 07:06:52;;;;;;;10.15;9.25;;;;;;;28.25;72.62207;95144.2;;;;
2020/08/01 07:08:01;;;;;;;10.15;9.25;;;;;;;28.25;72.62207;95144.2;;;;
2020/08/01 07:09:19;;;;;;;10.15;9.25;;;;;;;28.25;72.62207;95144.2;;;;
2020/08/01 07:10:29;;;;;;;10.15;9.25;;;;;;;28.25;72.62207;95144.2;;;;
2020/08/01 07:11:46;;;;;;;10.15;9.25;;;;;;;28.25;72.62207;95144.2;;;;
2020/08/01 07:13:01;;;;;;;10.15;9.25;;;;;;;28.25;72.62207;95144.2;;;;
2020/08/01 07:14:18;;;;;;;10.15;9.25;;;;;;;28.25;72.62207;95144.2;;;;
2020/08/01 07:15:33;;;;;;;10.4;9.450001;;;;;;;29.6;69.08008;95153.63;;;;
2020/08/01 07:16:41;;;;;;;10.4;9.450001;;;;;;;29.6;69.08008;95153.63;;;;
2020/08/01 07:18:05;;;;;;;10.4;9.450001;;;;;;;29.6;69.08008;95153.63;;;;
2020/08/01 07:19:19;;;;;;;10.4;9.450001;;;;;;;29.6;69.08008;95153.63;;;;
2020/08/01 07:20:25;;;;;;;10.4;9.450001;;;;;;;29.6;69.08008;95153.63;;;;
2020/08/01 07:21:34;;;;;;;10.4;9.450001;;;;;;;29.6;69.08008;95153.63;;;;
2020/08/01 07:22:52;;;;;;;10.4;9.450001;;;;;;;29.6;69.08008;95153.63;;;;
2020/08/01 07:24:08;;;;;;;10.4;9.450001;;;;;;;29.6;69.08008;95153.63;;;;
2020/08/01 07:25:24;;;;;;;10.4;9.450001;;;;;;;29.6;69.08008;95153.63;;;;
2020/08/01 07:26:34;;;;;;;12.8;9.4;;;;;;;30.57;65.99707;95166.13;;;;
2020/08/01 07:27:48;;;;;;;12.8;9.4;;;;;;;30.57;65.99707;95166.13;;;;
2020/08/01 07:28:53;;;;;;;12.8;9.4;;;;;;;30.57;65.99707;95166.13;;;;
2020/08/01 07:29:57;;;;;;;12.8;9.4;;;;;;;30.57;65.99707;95166.13;;;;
2020/08/01 07:31:12;;;;;;;12.8;9.4;;;;;;;30.57;65.99707;95166.13;;;;
2020/08/01 07:33:05;;;;;;;12.8;9.4;;;;;;;30.57;65.99707;95166.13;;;;
2020/08/01 07:34:22;;;;;;;12.8;9.4;;;;;;;30.57;65.99707;95166.13;;;;
2020/08/01 07:35:30;;;;;;;12.8;9.4;;;;;;;30.57;65.99707;95166.13;;;;
2020/08/01 07:36:35;;;;;;;10.4;9.400001;;;;;;;31.33;64.02734;95166.13;;;;
2020/08/01 07:37:47;;;;;;;10.4;9.400001;;;;;;;31.33;64.02734;95166.13;;;;
2020/08/01 07:38:52;;;;;;;10.4;9.400001;;;;;;;31.33;64.02734;95166.13;;;;
2020/08/01 07:40:09;;;;;;;10.4;9.400001;;;;;;;31.33;64.02734;95166.13;;;;
2020/08/01 07:41:19;;;;;;;10.4;9.400001;;;;;;;31.33;64.02734;95166.13;;;;
2020/08/01 07:42:27;;;;;;;10.4;9.400001;;;;;;;31.33;64.02734;95166.13;;;;
2020/08/01 07:43:40;;;;;;;10.4;9.400001;;;;;;;31.33;64.02734;95166.13;;;;
2020/08/01 07:44:45;;;;;;;10.4;9.400001;;;;;;;31.33;64.02734;95166.13;;;;
2020/08/01 07:45:49;;;;;;;10.4;9.400001;;;;;;;31.33;64.02734;95166.13;;;;
2020/08/01 07:47:05;;;;;;;9.4;8.549999;;;;;;;31.8;61.97363;95173.77;;;;
2020/08/01 07:48:10;;;;;;;9.4;8.549999;;;;;;;31.8;61.97363;95173.77;;;;
2020/08/01 07:49:37;;;;;;;9.4;8.549999;;;;;;;31.8;61.97363;95173.77;;;;
2020/08/01 07:50:45;;;;;;;9.4;8.549999;;;;;;;31.8;61.97363;95173.77;;;;
2020/08/01 07:51:51;;;;;;;9.4;8.549999;;;;;;;31.8;61.97363;95173.77;;;;
2020/08/01 07:55:13;;;;;;;9.4;8.549999;;;;;;;31.8;61.97363;95173.77;;;;
2020/08/01 07:56:33;;;;;;;9.4;8.549999;;;;;;;31.8;61.97363;95173.77;;;;
2020/08/01 07:57:38;;;;;;;9.649999;8.649999;;;;;;;32.22;60.38477;95172.09;;;;
2020/08/01 07:58:50;;;;;;;9.649999;8.649999;;;;;;;32.22;60.38477;95172.09;;;;
2020/08/01 07:59:54;;;;;;;9.649999;8.649999;;;;;;;32.22;60.38477;95172.09;;;;
2020/08/01 08:00:58;;;;;;;9.649999;8.649999;;;;;;;32.22;60.38477;95172.09;;;;
2020/08/01 08:02:04;;;;;;;9.649999;8.649999;;;;;;;32.22;60.38477;95172.09;;;;
2020/08/01 08:03:14;;;;;;;9.649999;8.649999;;;;;;;32.22;60.38477;95172.09;;;;
2020/08/01 08:04:32;;;;;;;9.649999;8.649999;;;;;;;32.22;60.38477;95172.09;;;;
2020/08/01 08:05:33;;;;;;;9.649999;8.649999;;;;;;;32.22;60.38477;95172.09;;;;
2020/08/01 08:06:38;;;;;;;9.649999;8.649999;;;;;;;32.22;60.38477;95172.09;;;;
2020/08/01 08:07:43;;;;;;;9.649999;8.649999;;;;;;;32.22;60.38477;95172.09;;;;
2020/08/01 08:08:46;;;;;;;9.5;8.5;;;;;;;32.48;58.83691;95157.92;;;;
2020/08/01 08:09:48;;;;;;;9.5;8.5;;;;;;;32.48;58.83691;95157.92;;;;
2020/08/01 08:10:54;;;;;;;9.5;8.5;;;;;;;32.48;58.83691;95157.92;;;;
2020/08/01 08:11:59;;;;;;;9.5;8.5;;;;;;;32.48;58.83691;95157.92;;;;
2020/08/01 08:13:07;;;;;;;9.5;8.5;;;;;;;32.48;58.83691;95157.92;;;;
2020/08/01 08:14:13;;;;;;;9.5;8.5;;;;;;;32.48;58.83691;95157.92;;;;
2020/08/01 08:15:18;;;;;;;9.5;8.5;;;;;;;32.48;58.83691;95157.92;;;;
2020/08/01 08:16:24;;;;;;;9.5;8.5;;;;;;;32.48;58.83691;95157.92;;;;
2020/08/01 08:17:33;;;;;;;9.5;8.5;;;;;;;32.48;58.83691;95157.92;;;;
2020/08/01 08:18:40;;;;;;;9.8;8.899999;;;;;;;32.77;57.06641;95162.13;;;;
2020/08/01 08:19:44;;;;;;;9.8;8.899999;;;;;;;32.77;57.06641;95162.13;;;;
2020/08/01 08:20:50;;;;;;;9.8;8.899999;;;;;;;32.77;57.06641;95162.13;;;;
2020/08/01 08:21:56;;;;;;;9.8;8.899999;;;;;;;32.77;57.06641;95162.13;;;;
2020/08/01 08:22:59;;;;;;;9.8;8.899999;;;;;;;32.77;57.06641;95162.13;;;;
2020/08/01 08:24:03;;;;;;;9.8;8.899999;;;;;;;32.77;57.06641;95162.13;;;;
2020/08/01 08:25:06;;;;;;;9.8;8.899999;;;;;;;32.77;57.06641;95162.13;;;;
2020/08/01 08:26:13;;;;;;;9.8;8.899999;;;;;;;32.77;57.06641;95162.13;;;;
2020/08/01 08:27:18;;;;;;;9.8;8.899999;;;;;;;32.77;57.06641;95162.13;;;;
2020/08/01 08:28:24;;;;;;;9.8;8.899999;;;;;;;32.77;57.06641;95162.13;;;;
2020/08/01 08:29:28;;;;;;;9.450001;8.549999;;;;;;;33.23;55.55078;95162.13;;;;
2020/08/01 08:30:34;;;;;;;9.450001;8.549999;;;;;;;33.23;55.55078;95162.13;;;;
2020/08/01 08:31:43;;;;;;;9.450001;8.549999;;;;;;;33.23;55.55078;95162.13;;;;
2020/08/01 08:32:48;;;;;;;9.450001;8.549999;;;;;;;33.23;55.55078;95162.13;;;;
2020/08/01 08:33:52;;;;;;;9.450001;8.549999;;;;;;;33.23;55.55078;95162.13;;;;
2020/08/01 08:34:58;;;;;;;9.450001;8.549999;;;;;;;33.23;55.55078;95162.13;;;;
2020/08/01 08:36:03;;;;;;;9.450001;8.549999;;;;;;;33.23;55.55078;95162.13;;;;
2020/08/01 08:37:12;;;;;;;9.450001;8.549999;;;;;;;33.23;55.55078;95162.13;;;;
2020/08/01 08:38:17;;;;;;;9.450001;8.549999;;;;;;;33.23;55.55078;95162.13;;;;
2020/08/01 08:39:23;;;;;;;9.450001;8.549999;;;;;;;33.23;55.55078;95162.13;;;;
2020/08/01 08:40:30;;;;;;;9.8;8.8;;;;;;;35.12;51.69531;95167.29;;;;
2020/08/01 08:41:35;;;;;;;9.8;8.8;;;;;;;35.12;51.69531;95167.29;;;;
2020/08/01 08:42:40;;;;;;;9.8;8.8;;;;;;;35.12;51.69531;95167.29;;;;
2020/08/01 08:43:45;;;;;;;9.8;8.8;;;;;;;35.12;51.69531;95167.29;;;;
2020/08/01 08:44:51;;;;;;;9.8;8.8;;;;;;;35.12;51.69531;95167.29;;;;
2020/08/01 08:45:53;;;;;;;9.8;8.8;;;;;;;35.12;51.69531;95167.29;;;;
2020/08/01 08:46:58;;;;;;;9.8;8.8;;;;;;;35.12;51.69531;95167.29;;;;
2020/08/01 08:48:04;;;;;;;9.8;8.8;;;;;;;35.12;51.69531;95167.29;;;;
2020/08/01 08:49:06;;;;;;;9.8;8.8;;;;;;;35.12;51.69531;95167.29;;;;
2020/08/01 08:50:09;;;;;;;9.8;8.8;;;;;;;35.12;51.69531;95167.29;;;;
2020/08/01 08:51:15;;;;;;;10.05;9.200001;;;;;;;38.22;45.88379;95166.22;;;;
2020/08/01 08:52:20;;;;;;;10.05;9.200001;;;;;;;38.22;45.88379;95166.22;;;;
2020/08/01 08:53:25;;;;;;;10.05;9.200001;;;;;;;38.22;45.88379;95166.22;;;;
2020/08/01 08:54:35;;;;;;;10.05;9.200001;;;;;;;38.22;45.88379;95166.22;;;;
2020/08/01 08:55:38;;;;;;;10.05;9.200001;;;;;;;38.22;45.88379;95166.22;;;;
2020/08/01 08:56:44;;;;;;;10.05;9.200001;;;;;;;38.22;45.88379;95166.22;;;;
2020/08/01 08:57:48;;;;;;;10.05;9.200001;;;;;;;38.22;45.88379;95166.22;;;;
2020/08/01 08:58:53;;;;;;;10.05;9.200001;;;;;;;38.22;45.88379;95166.22;;;;
2020/08/01 08:59:59;;;;;;;10.05;9.200001;;;;;;;38.22;45.88379;95166.22;;;;
2020/08/01 09:01:05;;;;;;;10.05;9.15;;;;;;;40.88;40.85449;95184.77;;;;
2020/08/01 09:02:10;;;;;;;10.05;9.15;;;;;;;40.88;40.85449;95184.77;;;;
2020/08/01 09:03:15;;;;;;;10.05;9.15;;;;;;;40.88;40.85449;95184.77;;;;
2020/08/01 09:04:19;;;;;;;10.05;9.15;;;;;;;40.88;40.85449;95184.77;;;;
2020/08/01 09:05:26;;;;;;;10.05;9.15;;;;;;;40.88;40.85449;95184.77;;;;
2020/08/01 09:06:32;;;;;;;10.05;9.15;;;;;;;40.88;40.85449;95184.77;;;;
2020/08/01 09:07:38;;;;;;;10.05;9.15;;;;;;;40.88;40.85449;95184.77;;;;
2020/08/01 09:08:43;;;;;;;10.05;9.15;;;;;;;40.88;40.85449;95184.77;;;;
2020/08/01 09:09:48;;;;;;;10.05;9.15;;;;;;;40.88;40.85449;95184.77;;;;
2020/08/01 09:10:53;;;;;;;10.05;9.15;;;;;;;40.88;40.85449;95184.77;;;;
2020/08/01 09:11:57;;;;;;;10.65;9.699999;;;;;;;43.19;36.80078;95188.45;;;;
2020/08/01 09:13:03;;;;;;;10.65;9.699999;;;;;;;43.19;36.80078;95188.45;;;;
2020/08/01 09:14:16;;;;;;;10.65;9.699999;;;;;;;43.19;36.80078;95188.45;;;;
2020/08/01 09:15:22;;;;;;;10.65;9.699999;;;;;;;43.19;36.80078;95188.45;;;;
2020/08/01 09:16:24;;;;;;;10.65;9.699999;;;;;;;43.19;36.80078;95188.45;;;;
2020/08/01 09:17:29;;;;;;;10.65;9.699999;;;;;;;43.19;36.80078;95188.45;;;;
2020/08/01 09:18:35;;;;;;;10.65;9.699999;;;;;;;43.19;36.80078;95188.45;;;;
2020/08/01 09:19:36;;;;;;;10.65;9.699999;;;;;;;43.19;36.80078;95188.45;;;;
2020/08/01 09:20:42;;;;;;;10.65;9.699999;;;;;;;43.19;36.80078;95188.45;;;;
2020/08/01 09:21:47;;;;;;;10.65;9.699999;;;;;;;43.19;36.80078;95188.45;;;;
2020/08/01 09:22:53;;;;;;;10.35;9.45;;;;;;;44.96;33.71484;95180.69;;;;
2020/08/01 09:23:58;;;;;;;10.35;9.45;;;;;;;44.96;33.71484;95180.69;;;;
2020/08/01 09:25:04;;;;;;;10.35;9.45;;;;;;;44.96;33.71484;95180.69;;;;
2020/08/01 09:26:10;;;;;;;10.35;9.45;;;;;;;44.96;33.71484;95180.69;;;;
2020/08/01 09:27:16;;;;;;;10.35;9.45;;;;;;;44.96;33.71484;95180.69;;;;
2020/08/01 09:28:23;;;;;;;10.35;9.45;;;;;;;44.96;33.71484;95180.69;;;;
2020/08/01 09:29:27;;;;;;;10.35;9.45;;;;;;;44.96;33.71484;95180.69;;;;
2020/08/01 09:30:34;;;;;;;10.35;9.45;;;;;;;44.96;33.71484;95180.69;;;;
2020/08/01 09:31:41;;;;;;;10.35;9.45;;;;;;;44.96;33.71484;95180.69;;;;
2020/08/01 09:32:45;;;;;;;10.35;9.45;;;;;;;44.96;33.71484;95180.69;;;;
2020/08/01 09:33:46;;;;;;;9.65;8.85;;;;;;;46.15;31.18652;95188.3;;;;
2020/08/01 09:34:50;;;;;;;9.65;8.85;;;;;;;46.15;31.18652;95188.3;;;;
2020/08/01 09:35:57;;;;;;;9.65;8.85;;;;;;;46.15;31.18652;95188.3;;;;
2020/08/01 09:37:01;;;;;;;9.65;8.85;;;;;;;46.15;31.18652;95188.3;;;;
2020/08/01 09:38:06;;;;;;;9.65;8.85;;;;;;;46.15;31.18652;95188.3;;;;
2020/08/01 09:39:13;;;;;;;9.65;8.85;;;;;;;46.15;31.18652;95188.3;;;;
2020/08/01 09:40:19;;;;;;;9.65;8.85;;;;;;;46.15;31.18652;95188.3;;;;
2020/08/01 09:41:26;;;;;;;9.65;8.85;;;;;;;46.15;31.18652;95188.3;;;;
2020/08/01 09:42:32;;;;;;;9.65;8.85;;;;;;;46.15;31.18652;95188.3;;;;
2020/08/01 09:43:38;;;;;;;10.8;9.700001;;;;;;;47.14;29.08887;95186.04;;;;
2020/08/01 09:44:43;;;;;;;10.8;9.700001;;;;;;;47.14;29.08887;95186.04;;;;
2020/08/01 09:45:48;;;;;;;10.8;9.700001;;;;;;;47.14;29.08887;95186.04;;;;
2020/08/01 09:46:51;;;;;;;10.8;9.700001;;;;;;;47.14;29.08887;95186.04;;;;
2020/08/01 09:47:58;;;;;;;10.8;9.700001;;;;;;;47.14;29.08887;95186.04;;;;
2020/08/01 09:49:05;;;;;;;10.8;9.700001;;;;;;;47.14;29.08887;95186.04;;;;
2020/08/01 09:50:10;;;;;;;10.8;9.700001;;;;;;;47.14;29.08887;95186.04;;;;
2020/08/01 09:51:15;;;;;;;10.8;9.700001;;;;;;;47.14;29.08887;95186.04;;;;
2020/08/01 09:52:20;;;;;;;10.8;9.700001;;;;;;;47.14;29.08887;95186.04;;;;
2020/08/01 09:53:25;;;;;;;10.8;9.700001;;;;;;;47.14;29.08887;95186.04;;;;
2020/08/01 09:54:33;;;;;;;10.8;9.749999;;;;;;;47.72;27.71094;95185.92;;;;
2020/08/01 09:55:38;;;;;;;10.8;9.749999;;;;;;;47.72;27.71094;95185.92;;;;
2020/08/01 09:56:40;;;;;;;10.8;9.749999;;;;;;;47.72;27.71094;95185.92;;;;
2020/08/01 09:57:43;;;;;;;10.8;9.749999;;;;;;;47.72;27.71094;95185.92;;;;
2020/08/01 09:58:47;;;;;;;10.8;9.749999;;;;;;;47.72;27.71094;95185.92;;;;
2020/08/01 09:59:53;;;;;;;10.8;9.749999;;;;;;;47.72;27.71094;95185.92;;;;
2020/08/01 10:00:55;;;;;;;10.8;9.749999;;;;;;;47.72;27.71094;95185.92;;;;
2020/08/01 10:02:02;;;;;;;10.8;9.749999;;;;;;;47.72;27.71094;95185.92;;;;
2020/08/01 10:03:11;;;;;;;10.8;9.749999;;;;;;;47.72;27.71094;95185.92;;;;
2020/08/01 10:04:18;;;;;;;10.8;9.749999;;;;;;;47.72;27.71094;95185.92;;;;